找回密碼
 注冊

掃一掃,訪問微社區

2019年EDA365年度技術峰會
收藏本版 (52) |訂閱

皇家社会v皇家贝蒂斯:   信號完整性SI/PI仿真 今日: 13 |主題: 7935|排名: 19 

本版置頂 隱藏置頂帖 [仿真討論] SI仿真工具閑聊 58人參與 attach_img  ...234 yawyw 2016-4-9 07:33 58 7143 wang10104510 2019-12-12 04:40
本版置頂 隱藏置頂帖 那些年,風靡全球的SI,PI,EMC BOOKS(2009--2015)外文版 122人參與 attach_img  ...23456..9 櫻桃海彌 2016-2-2 17:33 123 11598 lidagang 2019-12-11 21:24
      
[仿真討論] 射頻資料 可以拿去學習學習 2人參與 attachment New kkk228 2019-12-14 10:29 1 50 947812879 2019-12-14 18:00
[資料下載] 最新的高速信號虛擬探測和均衡技術 2人參與 attachment New mm58690 2019-12-13 13:29 2 65 pq199508 2019-12-13 15:28
[Cadence Sigrity] OPI做EMI仿真提示電容沒有封裝是怎么回事? 2人參與 attach_img New hyxs714154 2019-12-12 23:37 2 58 hyxs714154 2019-12-13 19:20
[CST仿真] 請教各位大神,cst2019導入BRD文檔出錯 3人參與 新人帖 attach_img New zhoumeng 2019-12-12 19:25 3 70 zhoumeng 2019-12-14 19:47
[Cadence Sigrity] OPI導入電容庫,為什么諧振頻率導不進來,都是一樣的? 1人參與 attach_img New hyxs714154 2019-12-11 20:17 1 72 changc365 2019-12-11 21:31
[仿真討論] 仿真銅皮載流計算 1人參與 新人帖 attach_img New myliyun4545 2019-12-11 16:53 1 94 2682439952 2019-12-11 17:44
[資料下載] 理解串行數據測試中的總體抖動算法 5人參與 attachment New Mhza 2019-12-11 09:49 6 65 藍色的天口 2019-12-12 15:27
[仿真討論] 關于仿真的IBIS模型疑問 2人參與 New 初學濱 2019-12-10 14:34 3 86 dzkcool 2019-12-11 16:06
[仿真討論] 如何對接插件進行SI分析? 3人參與 New Griffin 2019-12-9 11:18 3 87 lishijiong 2019-12-10 21:04
[資料下載] 信號完整性分析基礎——時鐘的抖動測量與分析 19人參與 attachment  ...2 New Mhza 2019-12-9 10:45 19 131 cxyspeaker 2019-12-13 10:23
[Cadence Sigrity] Power DC電熱混合仿真里面加散熱片仿真提示the thermal properties not specified ... 2人參與 attach_img hyxs714154 2019-12-7 19:09 3 120 陳工 2019-12-12 13:59
[Cadence Sigrity] 咨詢下老師們,學了Sigriry,后面學習那個軟件可以配合Sigrity很好的快速仿真?ADS... 3人參與 hyxs714154 2019-12-7 09:38 5 144 hyxs714154 2019-12-12 19:10
[Cadence Sigrity] Power DC Sink設置端等壓和電流模式有什么區別 1人參與 attach_img hyxs714154 2019-12-6 22:32 0 84 hyxs714154 2019-12-6 22:32
[Cadence Sigrity] LVDS信號回損(反射)分析 2人參與 attach_img yff014250 2019-12-6 20:51 2 133 yff014250 2019-12-7 09:44
[Cadence Sigrity] 后仿真在Constraint Manager中提取仿真模型,在sigxplorer中看不到過孔模型 3人參與 attach_img pcbdesigner 2019-12-6 17:06 3 95 chenxiting 2019-12-11 17:03
[Ansys仿真] hfss 3d layout用戶手冊 1人參與 新人帖 attachment liuminglaiye 2019-12-6 17:01 1 87 larryfarn 2019-12-6 18:30
[仿真討論] 阻抗不匹配,信號反射疊加的過程 4人參與 attach_img dark 2019-12-6 10:50 4 163 chenxiting 2019-12-11 17:04
[Cadence Sigrity] ibis轉dml的時候轉換失敗,提示以下錯誤 2人參與 attach_img pcb-doctor 2019-12-6 09:50 3 86 hyxs714154 2019-12-7 14:34
[仿真討論] 介紹FR4(dielectric layer)的玻璃纖維薄板編織,對高速SI設計的影響 3人參與 attachment fighting668 2019-12-5 22:59 3 86 豪哥 2019-12-7 23:08
[Ansys仿真] Ansoftlinks4.2或者更高版本 2人參與 新人帖 sam920 2019-12-5 18:03 2 71 小小樣的小樣 2019-12-5 21:36
[仿真討論] DCR 1人參與 heyongqiang 2019-12-5 16:52 1 81 hyxs714154 2019-12-7 10:29
[Cadence Sigrity] lvds信號串擾 Power SI參數分析 1人參與 attach_img yff014250 2019-12-5 16:02 1 117 zcs841017 2019-12-7 01:05
[Ansys仿真] 銅線粗糙度對SI的影響 1人參與 attachment fighting668 2019-12-5 14:41 0 76 fighting668 2019-12-5 14:41
下一頁 »
還可輸入 80 個字符
您需要登錄后才可以發帖 登錄 | 注冊

皇家社会皇马 www.elchpc.com.cn 本版積分規則

關閉

推薦內容上一條 /1 下一條

EDA365公眾號

關于我們|手機版|皇家社会皇马 ( 粵ICP備18020198號 )

GMT+8, 2019-12-14 20:31 , Processed in 0.187500 second(s), 56 queries , Gzip On.

皇家社会皇马

地址:深圳市南山區科技生態園2棟A座805 電話:19925233282

皇家社会皇马 返回版塊
80彩票安卓 我中了彩票游戏 收益率高就是赚钱了吗 小孩做什么工作可以赚钱 66阅读赚钱幕后是什么 麻将开挂软件多少钱 一个人去算命赚钱 2017年now直播怎么赚钱 梦幻西游任务赚钱 山西打麻将游戏 博物馆学赚钱吗 安卓手机捕鱼达人2技巧 下象棋怎么赚钱 云禾农场怎么赚钱 因为鸡可以赚钱用英文怎么说 捕鱼游戏排行榜2017